sensor_id;sensor_type;location;lat;lon;timestamp;P1;durP1;ratioP1;P2;durP2;ratioP2
72127;SDS011;60000;51.030;7.024;2023-03-15T00:02:25;9.55;;;2.25;;
72127;SDS011;60000;51.030;7.024;2023-03-15T00:04:50;7.60;;;1.80;;
72127;SDS011;60000;51.030;7.024;2023-03-15T00:07:18;14.03;;;2.43;;
72127;SDS011;60000;51.030;7.024;2023-03-15T00:09:50;9.10;;;2.20;;
72127;SDS011;60000;51.030;7.024;2023-03-15T00:12:16;11.57;;;2.70;;
72127;SDS011;60000;51.030;7.024;2023-03-15T00:14:41;12.70;;;2.40;;
72127;SDS011;60000;51.030;7.024;2023-03-15T00:17:07;12.55;;;2.58;;
72127;SDS011;60000;51.030;7.024;2023-03-15T00:19:32;8.70;;;2.03;;
72127;SDS011;60000;51.030;7.024;2023-03-15T00:21:57;11.20;;;2.40;;
72127;SDS011;60000;51.030;7.024;2023-03-15T00:24:23;16.57;;;2.60;;
72127;SDS011;60000;51.030;7.024;2023-03-15T00:26:48;8.60;;;2.37;;
72127;SDS011;60000;51.030;7.024;2023-03-15T00:29:13;8.43;;;2.53;;
72127;SDS011;60000;51.030;7.024;2023-03-15T00:31:39;9.57;;;2.40;;
72127;SDS011;60000;51.030;7.024;2023-03-15T00:34:04;7.07;;;2.20;;
72127;SDS011;60000;51.030;7.024;2023-03-15T00:36:30;7.83;;;2.83;;
72127;SDS011;60000;51.030;7.024;2023-03-15T00:38:56;8.90;;;2.70;;
72127;SDS011;60000;51.030;7.024;2023-03-15T00:41:22;8.97;;;2.17;;
72127;SDS011;60000;51.030;7.024;2023-03-15T00:43:47;10.25;;;2.80;;
72127;SDS011;60000;51.030;7.024;2023-03-15T00:46:13;14.77;;;2.90;;
72127;SDS011;60000;51.030;7.024;2023-03-15T00:48:40;8.68;;;2.55;;
72127;SDS011;60000;51.030;7.024;2023-03-15T00:51:09;9.97;;;3.43;;
72127;SDS011;60000;51.030;7.024;2023-03-15T00:53:37;14.60;;;2.60;;
72127;SDS011;60000;51.030;7.024;2023-03-15T00:56:05;9.70;;;2.67;;
72127;SDS011;60000;51.030;7.024;2023-03-15T00:58:31;9.18;;;2.60;;
72127;SDS011;60000;51.030;7.024;2023-03-15T01:00:57;12.93;;;3.00;;
72127;SDS011;60000;51.030;7.024;2023-03-15T01:03:22;10.03;;;3.50;;
72127;SDS011;60000;51.030;7.024;2023-03-15T01:05:48;13.23;;;3.33;;
72127;SDS011;60000;51.030;7.024;2023-03-15T01:08:13;10.30;;;3.07;;
72127;SDS011;60000;51.030;7.024;2023-03-15T01:10:38;8.97;;;3.23;;
72127;SDS011;60000;51.030;7.024;2023-03-15T01:13:04;13.15;;;3.53;;
72127;SDS011;60000;51.030;7.024;2023-03-15T01:15:29;10.57;;;3.00;;
72127;SDS011;60000;51.030;7.024;2023-03-15T01:17:54;9.07;;;2.60;;
72127;SDS011;60000;51.030;7.024;2023-03-15T01:20:20;10.77;;;3.42;;
72127;SDS011;60000;51.030;7.024;2023-03-15T01:22:46;9.23;;;3.33;;
72127;SDS011;60000;51.030;7.024;2023-03-15T01:25:11;10.30;;;3.47;;
72127;SDS011;60000;51.030;7.024;2023-03-15T01:27:36;13.07;;;4.10;;
72127;SDS011;60000;51.030;7.024;2023-03-15T01:30:02;11.10;;;3.90;;
72127;SDS011;60000;51.030;7.024;2023-03-15T01:32:28;12.82;;;3.70;;
72127;SDS011;60000;51.030;7.024;2023-03-15T01:34:53;12.60;;;3.70;;
72127;SDS011;60000;51.030;7.024;2023-03-15T01:37:18;12.30;;;3.40;;
72127;SDS011;60000;51.030;7.024;2023-03-15T01:39:48;11.70;;;3.42;;
72127;SDS011;60000;51.030;7.024;2023-03-15T01:42:14;14.10;;;4.05;;
72127;SDS011;60000;51.030;7.024;2023-03-15T01:47:15;14.65;;;4.95;;
72127;SDS011;60000;51.030;7.024;2023-03-15T01:49:40;17.70;;;5.37;;
72127;SDS011;60000;51.030;7.024;2023-03-15T01:52:12;13.70;;;5.40;;
72127;SDS011;60000;51.030;7.024;2023-03-15T01:54:45;14.65;;;5.03;;
72127;SDS011;60000;51.030;7.024;2023-03-15T02:00:06;13.60;;;5.15;;
72127;SDS011;60000;51.030;7.024;2023-03-15T02:02:37;10.23;;;3.50;;
72127;SDS011;60000;51.030;7.024;2023-03-15T02:05:10;5.83;;;2.13;;
72127;SDS011;60000;51.030;7.024;2023-03-15T02:07:41;7.28;;;2.30;;
72127;SDS011;60000;51.030;7.024;2023-03-15T02:10:14;5.85;;;1.92;;
72127;SDS011;60000;51.030;7.024;2023-03-15T02:12:44;7.13;;;1.70;;
72127;SDS011;60000;51.030;7.024;2023-03-15T02:15:12;5.22;;;1.30;;
72127;SDS011;60000;51.030;7.024;2023-03-15T02:17:39;6.90;;;1.70;;
72127;SDS011;60000;51.030;7.024;2023-03-15T02:23:06;6.40;;;1.65;;
72127;SDS011;60000;51.030;7.024;2023-03-15T02:28:17;7.97;;;1.90;;
72127;SDS011;60000;51.030;7.024;2023-03-15T02:30:43;7.73;;;2.50;;
72127;SDS011;60000;51.030;7.024;2023-03-15T02:33:12;8.27;;;2.88;;
72127;SDS011;60000;51.030;7.024;2023-03-15T02:35:48;6.53;;;2.35;;
72127;SDS011;60000;51.030;7.024;2023-03-15T02:38:15;7.10;;;3.17;;
72127;SDS011;60000;51.030;7.024;2023-03-15T02:40:40;8.73;;;2.20;;
72127;SDS011;60000;51.030;7.024;2023-03-15T02:43:10;7.80;;;2.00;;
72127;SDS011;60000;51.030;7.024;2023-03-15T02:45:39;4.78;;;1.75;;
72127;SDS011;60000;51.030;7.024;2023-03-15T02:48:05;5.83;;;1.83;;
72127;SDS011;60000;51.030;7.024;2023-03-15T02:50:31;6.00;;;1.85;;
72127;SDS011;60000;51.030;7.024;2023-03-15T02:52:57;6.20;;;1.90;;
72127;SDS011;60000;51.030;7.024;2023-03-15T02:55:22;7.60;;;2.13;;
72127;SDS011;60000;51.030;7.024;2023-03-15T02:57:47;6.50;;;1.73;;
72127;SDS011;60000;51.030;7.024;2023-03-15T03:00:13;6.03;;;2.03;;
72127;SDS011;60000;51.030;7.024;2023-03-15T03:02:39;7.17;;;2.07;;
72127;SDS011;60000;51.030;7.024;2023-03-15T03:05:07;7.10;;;1.60;;
72127;SDS011;60000;51.030;7.024;2023-03-15T03:07:32;5.25;;;1.92;;
72127;SDS011;60000;51.030;7.024;2023-03-15T03:09:57;6.07;;;1.83;;
72127;SDS011;60000;51.030;7.024;2023-03-15T03:12:23;5.30;;;1.97;;
72127;SDS011;60000;51.030;7.024;2023-03-15T03:14:48;5.23;;;1.87;;
72127;SDS011;60000;51.030;7.024;2023-03-15T03:17:13;5.43;;;1.50;;
72127;SDS011;60000;51.030;7.024;2023-03-15T03:19:39;6.53;;;1.67;;
72127;SDS011;60000;51.030;7.024;2023-03-15T03:22:04;4.88;;;1.80;;
72127;SDS011;60000;51.030;7.024;2023-03-15T03:24:30;3.53;;;1.30;;
72127;SDS011;60000;51.030;7.024;2023-03-15T03:26:56;5.30;;;1.30;;
72127;SDS011;60000;51.030;7.024;2023-03-15T03:29:22;3.87;;;1.13;;
72127;SDS011;60000;51.030;7.024;2023-03-15T03:31:48;5.22;;;1.40;;
72127;SDS011;60000;51.030;7.024;2023-03-15T03:34:13;6.23;;;1.50;;
72127;SDS011;60000;51.030;7.024;2023-03-15T03:36:40;4.80;;;1.40;;
72127;SDS011;60000;51.030;7.024;2023-03-15T03:39:07;4.87;;;1.10;;
72127;SDS011;60000;51.030;7.024;2023-03-15T03:41:32;3.88;;;1.10;;
72127;SDS011;60000;51.030;7.024;2023-03-15T03:43:57;4.30;;;1.40;;
72127;SDS011;60000;51.030;7.024;2023-03-15T03:46:23;5.07;;;1.53;;
72127;SDS011;60000;51.030;7.024;2023-03-15T03:48:49;4.95;;;1.63;;
72127;SDS011;60000;51.030;7.024;2023-03-15T03:51:14;6.10;;;1.77;;
72127;SDS011;60000;51.030;7.024;2023-03-15T03:53:39;4.93;;;1.73;;
72127;SDS011;60000;51.030;7.024;2023-03-15T03:56:05;4.40;;;1.47;;
72127;SDS011;60000;51.030;7.024;2023-03-15T03:58:31;5.88;;;1.60;;
72127;SDS011;60000;51.030;7.024;2023-03-15T04:00:56;5.57;;;1.87;;
72127;SDS011;60000;51.030;7.024;2023-03-15T04:03:22;4.87;;;1.80;;
72127;SDS011;60000;51.030;7.024;2023-03-15T04:05:51;5.43;;;1.85;;
72127;SDS011;60000;51.030;7.024;2023-03-15T04:08:20;5.07;;;1.83;;
72127;SDS011;60000;51.030;7.024;2023-03-15T04:10:50;6.43;;;2.10;;
72127;SDS011;60000;51.030;7.024;2023-03-15T04:13:20;6.15;;;2.17;;
72127;SDS011;60000;51.030;7.024;2023-03-15T04:15:46;5.63;;;2.40;;
72127;SDS011;60000;51.030;7.024;2023-03-15T04:18:13;8.55;;;2.63;;
72127;SDS011;60000;51.030;7.024;2023-03-15T04:20:38;6.82;;;3.08;;
72127;SDS011;60000;51.030;7.024;2023-03-15T04:23:10;6.90;;;2.57;;
72127;SDS011;60000;51.030;7.024;2023-03-15T04:25:49;7.22;;;2.78;;
72127;SDS011;60000;51.030;7.024;2023-03-15T04:28:17;8.13;;;2.90;;
72127;SDS011;60000;51.030;7.024;2023-03-15T04:30:43;7.20;;;2.50;;
72127;SDS011;60000;51.030;7.024;2023-03-15T04:33:09;7.43;;;3.10;;
72127;SDS011;60000;51.030;7.024;2023-03-15T04:35:35;7.87;;;3.47;;
72127;SDS011;60000;51.030;7.024;2023-03-15T04:38:03;6.97;;;2.78;;
72127;SDS011;60000;51.030;7.024;2023-03-15T04:40:29;6.07;;;2.47;;
72127;SDS011;60000;51.030;7.024;2023-03-15T04:42:59;6.43;;;2.40;;
72127;SDS011;60000;51.030;7.024;2023-03-15T04:45:25;6.73;;;2.20;;
72127;SDS011;60000;51.030;7.024;2023-03-15T04:47:51;6.78;;;2.50;;
72127;SDS011;60000;51.030;7.024;2023-03-15T04:50:17;6.80;;;2.63;;
72127;SDS011;60000;51.030;7.024;2023-03-15T04:52:44;7.22;;;2.80;;
72127;SDS011;60000;51.030;7.024;2023-03-15T04:55:09;5.77;;;2.67;;
72127;SDS011;60000;51.030;7.024;2023-03-15T04:57:35;6.33;;;2.67;;
72127;SDS011;60000;51.030;7.024;2023-03-15T05:00:00;5.75;;;2.03;;
72127;SDS011;60000;51.030;7.024;2023-03-15T05:02:26;6.03;;;2.10;;
72127;SDS011;60000;51.030;7.024;2023-03-15T05:04:51;6.40;;;2.13;;
72127;SDS011;60000;51.030;7.024;2023-03-15T05:07:17;5.63;;;2.17;;
72127;SDS011;60000;51.030;7.024;2023-03-15T05:09:42;5.23;;;1.90;;
72127;SDS011;60000;51.030;7.024;2023-03-15T05:12:10;5.38;;;2.20;;
72127;SDS011;60000;51.030;7.024;2023-03-15T05:14:35;5.40;;;1.98;;
72127;SDS011;60000;51.030;7.024;2023-03-15T05:17:01;5.10;;;1.63;;
72127;SDS011;60000;51.030;7.024;2023-03-15T05:19:27;5.20;;;1.88;;
72127;SDS011;60000;51.030;7.024;2023-03-15T05:21:53;5.20;;;1.87;;
72127;SDS011;60000;51.030;7.024;2023-03-15T05:24:22;5.43;;;2.03;;
72127;SDS011;60000;51.030;7.024;2023-03-15T05:26:47;5.10;;;1.50;;
72127;SDS011;60000;51.030;7.024;2023-03-15T05:29:13;6.35;;;2.05;;
72127;SDS011;60000;51.030;7.024;2023-03-15T05:31:39;4.97;;;1.70;;
72127;SDS011;60000;51.030;7.024;2023-03-15T05:34:04;6.10;;;1.93;;
72127;SDS011;60000;51.030;7.024;2023-03-15T05:36:30;4.63;;;1.80;;
72127;SDS011;60000;51.030;7.024;2023-03-15T05:38:56;6.13;;;2.33;;
72127;SDS011;60000;51.030;7.024;2023-03-15T05:41:22;5.30;;;1.83;;
72127;SDS011;60000;51.030;7.024;2023-03-15T05:43:47;5.25;;;2.20;;
72127;SDS011;60000;51.030;7.024;2023-03-15T05:46:13;7.00;;;2.75;;
72127;SDS011;60000;51.030;7.024;2023-03-15T05:48:38;6.37;;;2.70;;
72127;SDS011;60000;51.030;7.024;2023-03-15T05:51:04;6.40;;;2.72;;
72127;SDS011;60000;51.030;7.024;2023-03-15T05:53:29;8.98;;;3.17;;
72127;SDS011;60000;51.030;7.024;2023-03-15T05:55:55;7.70;;;3.50;;
72127;SDS011;60000;51.030;7.024;2023-03-15T05:58:20;8.10;;;3.90;;
72127;SDS011;60000;51.030;7.024;2023-03-15T06:00:45;7.17;;;3.37;;
72127;SDS011;60000;51.030;7.024;2023-03-15T06:03:11;7.90;;;3.53;;
72127;SDS011;60000;51.030;7.024;2023-03-15T06:05:36;8.93;;;4.03;;
72127;SDS011;60000;51.030;7.024;2023-03-15T06:08:01;8.43;;;4.03;;
72127;SDS011;60000;51.030;7.024;2023-03-15T06:10:27;8.02;;;3.78;;
72127;SDS011;60000;51.030;7.024;2023-03-15T06:12:52;9.80;;;4.00;;
72127;SDS011;60000;51.030;7.024;2023-03-15T06:15:19;9.90;;;4.05;;
72127;SDS011;60000;51.030;7.024;2023-03-15T06:17:44;8.43;;;3.97;;
72127;SDS011;60000;51.030;7.024;2023-03-15T06:20:10;9.67;;;4.67;;
72127;SDS011;60000;51.030;7.024;2023-03-15T06:22:36;10.98;;;4.95;;
72127;SDS011;60000;51.030;7.024;2023-03-15T06:25:02;9.00;;;3.70;;
72127;SDS011;60000;51.030;7.024;2023-03-15T06:27:28;8.10;;;4.00;;
72127;SDS011;60000;51.030;7.024;2023-03-15T06:29:53;9.77;;;4.40;;
72127;SDS011;60000;51.030;7.024;2023-03-15T06:32:18;10.10;;;4.60;;
72127;SDS011;60000;51.030;7.024;2023-03-15T06:34:44;8.70;;;4.27;;
72127;SDS011;60000;51.030;7.024;2023-03-15T06:37:09;11.07;;;4.18;;
72127;SDS011;60000;51.030;7.024;2023-03-15T06:39:37;10.93;;;4.67;;
72127;SDS011;60000;51.030;7.024;2023-03-15T06:42:03;8.95;;;4.20;;
72127;SDS011;60000;51.030;7.024;2023-03-15T06:44:30;10.63;;;4.28;;
72127;SDS011;60000;51.030;7.024;2023-03-15T06:46:56;8.50;;;4.10;;
72127;SDS011;60000;51.030;7.024;2023-03-15T06:49:21;11.73;;;4.67;;
72127;SDS011;60000;51.030;7.024;2023-03-15T06:51:46;10.80;;;4.67;;
72127;SDS011;60000;51.030;7.024;2023-03-15T06:54:12;9.23;;;3.87;;
72127;SDS011;60000;51.030;7.024;2023-03-15T06:56:37;12.53;;;5.47;;
72127;SDS011;60000;51.030;7.024;2023-03-15T06:59:03;10.43;;;5.13;;
72127;SDS011;60000;51.030;7.024;2023-03-15T07:01:28;10.97;;;5.17;;
72127;SDS011;60000;51.030;7.024;2023-03-15T07:03:54;10.70;;;4.40;;
72127;SDS011;60000;51.030;7.024;2023-03-15T07:06:19;9.50;;;4.13;;
72127;SDS011;60000;51.030;7.024;2023-03-15T07:08:44;10.63;;;5.07;;
72127;SDS011;60000;51.030;7.024;2023-03-15T07:11:10;10.40;;;4.50;;
72127;SDS011;60000;51.030;7.024;2023-03-15T07:13:36;10.05;;;4.72;;
72127;SDS011;60000;51.030;7.024;2023-03-15T07:16:02;9.53;;;4.27;;
72127;SDS011;60000;51.030;7.024;2023-03-15T07:18:27;9.53;;;3.67;;
72127;SDS011;60000;51.030;7.024;2023-03-15T07:20:56;10.03;;;4.90;;
72127;SDS011;60000;51.030;7.024;2023-03-15T07:23:22;9.23;;;4.20;;
72127;SDS011;60000;51.030;7.024;2023-03-15T07:25:48;8.75;;;4.35;;
72127;SDS011;60000;51.030;7.024;2023-03-15T07:28:13;8.13;;;3.70;;
72127;SDS011;60000;51.030;7.024;2023-03-15T07:30:39;10.17;;;4.90;;
72127;SDS011;60000;51.030;7.024;2023-03-15T07:33:04;9.43;;;3.93;;
72127;SDS011;60000;51.030;7.024;2023-03-15T07:35:29;8.90;;;4.30;;
72127;SDS011;60000;51.030;7.024;2023-03-15T07:37:55;10.80;;;4.43;;
72127;SDS011;60000;51.030;7.024;2023-03-15T07:40:20;10.77;;;5.22;;
72127;SDS011;60000;51.030;7.024;2023-03-15T07:42:45;12.23;;;5.43;;
72127;SDS011;60000;51.030;7.024;2023-03-15T07:45:11;12.40;;;6.13;;
72127;SDS011;60000;51.030;7.024;2023-03-15T07:47:36;11.23;;;5.57;;
72127;SDS011;60000;51.030;7.024;2023-03-15T07:50:03;12.57;;;6.70;;
72127;SDS011;60000;51.030;7.024;2023-03-15T07:52:29;12.02;;;6.40;;
72127;SDS011;60000;51.030;7.024;2023-03-15T07:54:55;11.97;;;5.97;;
72127;SDS011;60000;51.030;7.024;2023-03-15T07:57:20;13.20;;;6.50;;
72127;SDS011;60000;51.030;7.024;2023-03-15T07:59:45;13.27;;;6.40;;
72127;SDS011;60000;51.030;7.024;2023-03-15T08:02:11;13.43;;;6.63;;
72127;SDS011;60000;51.030;7.024;2023-03-15T08:04:37;13.15;;;6.78;;
72127;SDS011;60000;51.030;7.024;2023-03-15T08:07:03;12.40;;;6.40;;
72127;SDS011;60000;51.030;7.024;2023-03-15T08:09:28;13.63;;;6.93;;
72127;SDS011;60000;51.030;7.024;2023-03-15T08:11:56;12.98;;;6.30;;
72127;SDS011;60000;51.030;7.024;2023-03-15T08:14:22;17.73;;;6.97;;
72127;SDS011;60000;51.030;7.024;2023-03-15T08:16:48;15.50;;;7.50;;
72127;SDS011;60000;51.030;7.024;2023-03-15T08:19:14;12.93;;;6.90;;
72127;SDS011;60000;51.030;7.024;2023-03-15T08:21:39;13.27;;;6.57;;
72127;SDS011;60000;51.030;7.024;2023-03-15T08:24:09;14.53;;;6.40;;
72127;SDS011;60000;51.030;7.024;2023-03-15T08:26:35;11.90;;;5.93;;
72127;SDS011;60000;51.030;7.024;2023-03-15T08:29:00;13.87;;;6.60;;
72127;SDS011;60000;51.030;7.024;2023-03-15T08:31:25;14.87;;;6.83;;
72127;SDS011;60000;51.030;7.024;2023-03-15T08:33:51;13.63;;;6.32;;
72127;SDS011;60000;51.030;7.024;2023-03-15T08:36:16;17.60;;;6.90;;
72127;SDS011;60000;51.030;7.024;2023-03-15T08:38:41;13.70;;;6.33;;
72127;SDS011;60000;51.030;7.024;2023-03-15T08:41:07;15.10;;;6.13;;
72127;SDS011;60000;51.030;7.024;2023-03-15T08:43:32;11.40;;;5.77;;
72127;SDS011;60000;51.030;7.024;2023-03-15T08:45:57;11.03;;;5.23;;
72127;SDS011;60000;51.030;7.024;2023-03-15T08:48:23;10.90;;;5.10;;
72127;SDS011;60000;51.030;7.024;2023-03-15T08:50:48;10.47;;;5.30;;
72127;SDS011;60000;51.030;7.024;2023-03-15T08:53:13;12.07;;;4.93;;
72127;SDS011;60000;51.030;7.024;2023-03-15T08:55:39;10.65;;;4.72;;
72127;SDS011;60000;51.030;7.024;2023-03-15T08:58:04;11.00;;;5.10;;
72127;SDS011;60000;51.030;7.024;2023-03-15T09:00:30;10.40;;;4.93;;
72127;SDS011;60000;51.030;7.024;2023-03-15T09:02:55;11.13;;;5.37;;
72127;SDS011;60000;51.030;7.024;2023-03-15T09:05:21;9.30;;;4.80;;
72127;SDS011;60000;51.030;7.024;2023-03-15T09:07:48;12.73;;;4.27;;
72127;SDS011;60000;51.030;7.024;2023-03-15T09:10:15;8.43;;;3.58;;
72127;SDS011;60000;51.030;7.024;2023-03-15T09:12:42;12.55;;;5.00;;
72127;SDS011;60000;51.030;7.024;2023-03-15T09:15:08;11.20;;;4.10;;
72127;SDS011;60000;51.030;7.024;2023-03-15T09:17:35;8.23;;;3.97;;
72127;SDS011;60000;51.030;7.024;2023-03-15T09:20:01;9.70;;;4.40;;
72127;SDS011;60000;51.030;7.024;2023-03-15T09:22:31;9.25;;;4.60;;
72127;SDS011;60000;51.030;7.024;2023-03-15T09:24:57;10.53;;;4.13;;
72127;SDS011;60000;51.030;7.024;2023-03-15T09:27:22;10.27;;;4.00;;
72127;SDS011;60000;51.030;7.024;2023-03-15T09:29:47;9.60;;;4.43;;
72127;SDS011;60000;51.030;7.024;2023-03-15T09:32:13;11.10;;;4.40;;
72127;SDS011;60000;51.030;7.024;2023-03-15T09:34:38;9.60;;;4.07;;
72127;SDS011;60000;51.030;7.024;2023-03-15T09:37:04;10.07;;;4.07;;
72127;SDS011;60000;51.030;7.024;2023-03-15T09:39:30;8.50;;;3.42;;
72127;SDS011;60000;51.030;7.024;2023-03-15T09:41:57;9.90;;;3.83;;
72127;SDS011;60000;51.030;7.024;2023-03-15T09:44:34;10.70;;;3.72;;
72127;SDS011;60000;51.030;7.024;2023-03-15T09:52:32;8.43;;;3.10;;
72127;SDS011;60000;51.030;7.024;2023-03-15T09:55:00;11.13;;;3.30;;
72127;SDS011;60000;51.030;7.024;2023-03-15T09:57:47;7.82;;;3.00;;
72127;SDS011;60000;51.030;7.024;2023-03-15T10:00:21;8.15;;;3.22;;
72127;SDS011;60000;51.030;7.024;2023-03-15T10:02:58;7.70;;;3.15;;
72127;SDS011;60000;51.030;7.024;2023-03-15T10:05:34;8.00;;;2.97;;
72127;SDS011;60000;51.030;7.024;2023-03-15T10:08:11;8.73;;;3.50;;
72127;SDS011;60000;51.030;7.024;2023-03-15T10:10:50;8.48;;;3.15;;
72127;SDS011;60000;51.030;7.024;2023-03-15T10:13:41;9.40;;;3.05;;
72127;SDS011;60000;51.030;7.024;2023-03-15T10:16:38;8.95;;;2.88;;
72127;SDS011;60000;51.030;7.024;2023-03-15T10:24:46;8.63;;;3.22;;
72127;SDS011;60000;51.030;7.024;2023-03-15T10:29:54;8.30;;;3.28;;
72127;SDS011;60000;51.030;7.024;2023-03-15T10:32:23;7.15;;;2.90;;
72127;SDS011;60000;51.030;7.024;2023-03-15T10:34:52;9.37;;;3.23;;
72127;SDS011;60000;51.030;7.024;2023-03-15T10:37:22;6.85;;;3.08;;
72127;SDS011;60000;51.030;7.024;2023-03-15T10:39:55;9.07;;;3.45;;
72127;SDS011;60000;51.030;7.024;2023-03-15T10:42:29;8.80;;;2.83;;
72127;SDS011;60000;51.030;7.024;2023-03-15T10:44:57;7.95;;;2.97;;
72127;SDS011;60000;51.030;7.024;2023-03-15T10:47:26;8.63;;;2.83;;
72127;SDS011;60000;51.030;7.024;2023-03-15T10:49:55;8.90;;;2.88;;
72127;SDS011;60000;51.030;7.024;2023-03-15T10:52:41;7.47;;;2.60;;
72127;SDS011;60000;51.030;7.024;2023-03-15T10:55:17;7.75;;;2.58;;
72127;SDS011;60000;51.030;7.024;2023-03-15T10:57:53;6.45;;;2.70;;
72127;SDS011;60000;51.030;7.024;2023-03-15T11:00:24;7.18;;;2.70;;
72127;SDS011;60000;51.030;7.024;2023-03-15T11:03:00;7.60;;;2.22;;
72127;SDS011;60000;51.030;7.024;2023-03-15T11:05:31;7.97;;;2.65;;
72127;SDS011;60000;51.030;7.024;2023-03-15T11:08:10;8.13;;;3.03;;
72127;SDS011;60000;51.030;7.024;2023-03-15T11:10:37;7.30;;;2.30;;
72127;SDS011;60000;51.030;7.024;2023-03-15T11:15:52;6.80;;;1.97;;
72127;SDS011;60000;51.030;7.024;2023-03-15T11:20:58;5.75;;;2.08;;
72127;SDS011;60000;51.030;7.024;2023-03-15T11:23:28;6.35;;;1.83;;
72127;SDS011;60000;51.030;7.024;2023-03-15T11:25:58;9.38;;;1.80;;
72127;SDS011;60000;51.030;7.024;2023-03-15T11:28:26;5.83;;;1.80;;
72127;SDS011;60000;51.030;7.024;2023-03-15T11:30:55;6.38;;;1.85;;
72127;SDS011;60000;51.030;7.024;2023-03-15T11:36:03;7.10;;;1.75;;
72127;SDS011;60000;51.030;7.024;2023-03-15T11:38:34;7.28;;;2.05;;
72127;SDS011;60000;51.030;7.024;2023-03-15T11:41:10;5.10;;;1.80;;
72127;SDS011;60000;51.030;7.024;2023-03-15T11:43:58;6.03;;;1.90;;
72127;SDS011;60000;51.030;7.024;2023-03-15T11:46:42;5.70;;;1.70;;
72127;SDS011;60000;51.030;7.024;2023-03-15T11:52:05;6.68;;;1.73;;
72127;SDS011;60000;51.030;7.024;2023-03-15T11:54:30;5.77;;;1.47;;
72127;SDS011;60000;51.030;7.024;2023-03-15T11:57:00;7.20;;;1.83;;
72127;SDS011;60000;51.030;7.024;2023-03-15T11:59:51;6.35;;;2.00;;
72127;SDS011;60000;51.030;7.024;2023-03-15T12:04:52;7.57;;;1.73;;
72127;SDS011;60000;51.030;7.024;2023-03-15T12:09:47;10.03;;;1.77;;
72127;SDS011;60000;51.030;7.024;2023-03-15T12:17:43;6.57;;;1.58;;
72127;SDS011;60000;51.030;7.024;2023-03-15T12:22:51;7.55;;;1.75;;
72127;SDS011;60000;51.030;7.024;2023-03-15T12:25:23;5.73;;;1.50;;
72127;SDS011;60000;51.030;7.024;2023-03-15T12:27:55;5.03;;;1.48;;
72127;SDS011;60000;51.030;7.024;2023-03-15T12:30:32;4.82;;;1.50;;
72127;SDS011;60000;51.030;7.024;2023-03-15T12:33:03;7.13;;;1.50;;
72127;SDS011;60000;51.030;7.024;2023-03-15T12:35:40;6.63;;;1.65;;
72127;SDS011;60000;51.030;7.024;2023-03-15T12:38:10;6.27;;;1.87;;
72127;SDS011;60000;51.030;7.024;2023-03-15T12:40:52;7.40;;;1.92;;
72127;SDS011;60000;51.030;7.024;2023-03-15T12:43:52;6.35;;;1.60;;
72127;SDS011;60000;51.030;7.024;2023-03-15T12:49:10;8.95;;;1.88;;
72127;SDS011;60000;51.030;7.024;2023-03-15T12:51:42;5.90;;;1.88;;
72127;SDS011;60000;51.030;7.024;2023-03-15T12:54:17;4.43;;;1.50;;
72127;SDS011;60000;51.030;7.024;2023-03-15T12:56:46;6.50;;;1.70;;
72127;SDS011;60000;51.030;7.024;2023-03-15T13:01:52;4.40;;;1.50;;
72127;SDS011;60000;51.030;7.024;2023-03-15T13:04:20;6.00;;;1.20;;
72127;SDS011;60000;51.030;7.024;2023-03-15T13:06:57;3.65;;;1.08;;
72127;SDS011;60000;51.030;7.024;2023-03-15T13:13:16;5.80;;;1.80;;
72127;SDS011;60000;51.030;7.024;2023-03-15T13:18:33;5.20;;;1.80;;
72127;SDS011;60000;51.030;7.024;2023-03-15T13:21:18;4.90;;;1.40;;
72127;SDS011;60000;51.030;7.024;2023-03-15T13:24:17;4.47;;;1.60;;
72127;SDS011;60000;51.030;7.024;2023-03-15T13:26:50;5.25;;;1.58;;
72127;SDS011;60000;51.030;7.024;2023-03-15T13:29:28;6.32;;;1.90;;
72127;SDS011;60000;51.030;7.024;2023-03-15T13:34:37;3.63;;;1.13;;
72127;SDS011;60000;51.030;7.024;2023-03-15T13:37:02;5.70;;;1.80;;
72127;SDS011;60000;51.030;7.024;2023-03-15T13:39:32;3.60;;;1.17;;
72127;SDS011;60000;51.030;7.024;2023-03-15T13:41:59;4.22;;;1.30;;
72127;SDS011;60000;51.030;7.024;2023-03-15T13:44:26;5.53;;;1.48;;
72127;SDS011;60000;51.030;7.024;2023-03-15T13:46:53;4.65;;;1.35;;
72127;SDS011;60000;51.030;7.024;2023-03-15T13:49:19;4.88;;;1.10;;
72127;SDS011;60000;51.030;7.024;2023-03-15T13:51:45;4.47;;;1.40;;
72127;SDS011;60000;51.030;7.024;2023-03-15T13:54:15;6.68;;;1.30;;
72127;SDS011;60000;51.030;7.024;2023-03-15T13:59:40;5.82;;;1.42;;
72127;SDS011;60000;51.030;7.024;2023-03-15T14:02:10;4.38;;;1.25;;
72127;SDS011;60000;51.030;7.024;2023-03-15T14:04:40;5.47;;;1.40;;
72127;SDS011;60000;51.030;7.024;2023-03-15T14:07:17;4.27;;;1.20;;
72127;SDS011;60000;51.030;7.024;2023-03-15T14:09:45;4.97;;;1.25;;
72127;SDS011;60000;51.030;7.024;2023-03-15T14:12:17;4.07;;;1.47;;
72127;SDS011;60000;51.030;7.024;2023-03-15T14:14:50;5.70;;;1.67;;
72127;SDS011;60000;51.030;7.024;2023-03-15T14:17:19;5.38;;;1.40;;
72127;SDS011;60000;51.030;7.024;2023-03-15T14:19:51;4.30;;;1.10;;
72127;SDS011;60000;51.030;7.024;2023-03-15T14:22:19;5.43;;;0.90;;
72127;SDS011;60000;51.030;7.024;2023-03-15T14:24:45;4.38;;;1.25;;
72127;SDS011;60000;51.030;7.024;2023-03-15T14:27:14;5.90;;;1.60;;
72127;SDS011;60000;51.030;7.024;2023-03-15T14:29:47;4.80;;;1.75;;
72127;SDS011;60000;51.030;7.024;2023-03-15T14:32:50;7.20;;;1.98;;
72127;SDS011;60000;51.030;7.024;2023-03-15T14:35:21;4.30;;;1.10;;
72127;SDS011;60000;51.030;7.024;2023-03-15T14:37:47;5.03;;;1.40;;
72127;SDS011;60000;51.030;7.024;2023-03-15T14:40:28;4.30;;;1.00;;
72127;SDS011;60000;51.030;7.024;2023-03-15T14:42:59;4.35;;;1.60;;
72127;SDS011;60000;51.030;7.024;2023-03-15T14:45:25;3.47;;;1.10;;
72127;SDS011;60000;51.030;7.024;2023-03-15T14:47:52;7.45;;;1.45;;
72127;SDS011;60000;51.030;7.024;2023-03-15T14:50:21;3.95;;;1.15;;
72127;SDS011;60000;51.030;7.024;2023-03-15T14:52:48;5.10;;;1.10;;
72127;SDS011;60000;51.030;7.024;2023-03-15T14:55:15;5.50;;;1.40;;
72127;SDS011;60000;51.030;7.024;2023-03-15T14:57:42;4.40;;;1.17;;
72127;SDS011;60000;51.030;7.024;2023-03-15T15:00:10;4.60;;;1.50;;
72127;SDS011;60000;51.030;7.024;2023-03-15T15:02:37;6.63;;;1.40;;
72127;SDS011;60000;51.030;7.024;2023-03-15T15:05:08;7.40;;;1.42;;
72127;SDS011;60000;51.030;7.024;2023-03-15T15:07:49;6.50;;;2.17;;
72127;SDS011;60000;51.030;7.024;2023-03-15T15:10:19;5.80;;;1.10;;
72127;SDS011;60000;51.030;7.024;2023-03-15T15:12:46;8.38;;;1.33;;
72127;SDS011;60000;51.030;7.024;2023-03-15T15:15:15;6.75;;;1.60;;
72127;SDS011;60000;51.030;7.024;2023-03-15T15:17:42;5.70;;;1.30;;
72127;SDS011;60000;51.030;7.024;2023-03-15T15:20:07;4.03;;;1.00;;
72127;SDS011;60000;51.030;7.024;2023-03-15T15:22:35;4.43;;;1.60;;
72127;SDS011;60000;51.030;7.024;2023-03-15T15:25:01;4.40;;;1.00;;
72127;SDS011;60000;51.030;7.024;2023-03-15T15:27:26;5.80;;;1.13;;
72127;SDS011;60000;51.030;7.024;2023-03-15T15:29:52;5.10;;;1.03;;
72127;SDS011;60000;51.030;7.024;2023-03-15T15:32:17;3.03;;;1.02;;
72127;SDS011;60000;51.030;7.024;2023-03-15T15:34:43;3.53;;;0.90;;
72127;SDS011;60000;51.030;7.024;2023-03-15T15:37:09;3.80;;;1.00;;
72127;SDS011;60000;51.030;7.024;2023-03-15T15:39:35;3.58;;;0.70;;
72127;SDS011;60000;51.030;7.024;2023-03-15T15:42:01;3.33;;;0.90;;
72127;SDS011;60000;51.030;7.024;2023-03-15T15:44:26;3.63;;;1.30;;
72127;SDS011;60000;51.030;7.024;2023-03-15T15:46:51;6.27;;;2.40;;
72127;SDS011;60000;51.030;7.024;2023-03-15T15:49:17;7.97;;;1.80;;
72127;SDS011;60000;51.030;7.024;2023-03-15T15:51:43;4.03;;;1.13;;
72127;SDS011;60000;51.030;7.024;2023-03-15T15:54:14;3.90;;;1.10;;
72127;SDS011;60000;51.030;7.024;2023-03-15T15:56:51;5.90;;;1.42;;